createdAt,value
2019-04-03T00:00:55.295Z,15.73
2019-04-03T00:03:36.720Z,16.50
2019-04-03T00:06:07.096Z,15.70
2019-04-03T00:08:38.079Z,17.80
2019-04-03T00:11:09.387Z,14.60
2019-04-03T00:13:57.926Z,15.65
2019-04-03T00:16:27.286Z,15.40
2019-04-03T00:18:56.961Z,17.40
2019-04-03T00:21:26.386Z,16.00
2019-04-03T00:23:56.300Z,15.50
2019-04-03T00:26:25.657Z,15.67
2019-04-03T00:28:55.366Z,15.63
2019-04-03T00:31:37.482Z,16.10
2019-04-03T00:34:19.332Z,17.67
2019-04-03T00:36:53.006Z,16.50
2019-04-03T00:39:30.453Z,16.63
2019-04-03T00:42:00.399Z,17.40
2019-04-03T00:44:30.078Z,16.20
2019-04-03T00:46:59.528Z,16.70
2019-04-03T00:49:29.081Z,16.93
2019-04-03T00:51:58.458Z,16.42
2019-04-03T00:54:47.347Z,15.20
2019-04-03T00:57:17.039Z,16.57
2019-04-03T00:59:46.691Z,16.13
2019-04-03T01:02:28.832Z,16.83
2019-04-03T01:04:58.893Z,15.60
2019-04-03T01:07:54.518Z,15.97
2019-04-03T01:10:36.953Z,16.03
2019-04-03T01:13:06.337Z,15.67
2019-04-03T01:15:36.000Z,16.87
2019-04-03T01:18:05.376Z,16.60
2019-04-03T01:20:36.279Z,16.57
2019-04-03T01:23:11.412Z,15.70
2019-04-03T01:25:41.115Z,16.42
2019-04-03T01:28:11.725Z,16.27
2019-04-03T01:30:50.799Z,15.53
2019-04-03T01:33:20.181Z,15.00
2019-04-03T01:35:49.536Z,15.32
2019-04-03T01:38:38.550Z,16.53
2019-04-03T01:41:21.611Z,16.57
2019-04-03T01:43:53.402Z,16.20
2019-04-03T01:46:47.798Z,15.57
2019-04-03T01:49:23.947Z,16.83
2019-04-03T01:51:53.550Z,15.23
2019-04-03T01:54:36.138Z,16.23
2019-04-03T01:57:20.036Z,15.50
2019-04-03T02:02:24.705Z,16.43
2019-04-03T02:04:54.464Z,14.55
2019-04-03T02:07:23.824Z,16.20
2019-04-03T02:10:05.846Z,15.13
2019-04-03T02:12:47.403Z,14.60
2019-04-03T02:15:16.853Z,14.83
2019-04-03T02:17:46.509Z,14.50
2019-04-03T02:20:57.766Z,15.90
2019-04-03T02:23:32.393Z,15.43
2019-04-03T02:26:02.461Z,15.70
2019-04-03T02:28:38.744Z,15.20
2019-04-03T02:31:27.624Z,14.83
2019-04-03T02:34:01.142Z,15.28
2019-04-03T02:36:34.840Z,17.30
2019-04-03T02:42:09.438Z,15.10
2019-04-03T02:44:48.388Z,14.35
2019-04-03T02:47:30.407Z,15.98
2019-04-03T02:50:21.011Z,15.30
2019-04-03T02:52:50.953Z,16.23
2019-04-03T02:55:20.445Z,14.27
2019-04-03T02:57:50.332Z,14.30
2019-04-03T03:00:45.708Z,15.57
2019-04-03T03:03:28.291Z,14.37
2019-04-03T03:06:38.007Z,16.10
2019-04-03T03:12:41.736Z,14.67
2019-04-03T03:15:12.662Z,15.60
2019-04-03T03:18:02.523Z,14.57
2019-04-03T03:21:18.843Z,16.67
2019-04-03T03:27:03.478Z,15.33
2019-04-03T03:29:33.161Z,15.27
2019-04-03T03:32:12.627Z,16.27
2019-04-03T03:35:40.327Z,16.03
2019-04-03T03:38:09.586Z,15.93
2019-04-03T03:41:22.207Z,17.00
2019-04-03T03:47:51.454Z,16.80
2019-04-03T03:50:40.149Z,16.33
2019-04-03T03:53:11.515Z,16.73
2019-04-03T03:55:59.710Z,16.80
2019-04-03T03:58:44.586Z,16.37
2019-04-03T04:01:13.093Z,16.63
2019-04-03T04:03:49.017Z,17.57
2019-04-03T04:06:18.464Z,16.73
2019-04-03T04:08:48.180Z,17.53
2019-04-03T04:11:17.686Z,17.20
2019-04-03T04:13:48.878Z,16.85
2019-04-03T04:16:24.582Z,17.07
2019-04-03T04:18:57.301Z,18.62
2019-04-03T04:21:57.570Z,16.47
2019-04-03T04:24:28.295Z,17.13
2019-04-03T04:30:18.597Z,22.23
2019-04-03T04:32:47.988Z,22.70
2019-04-03T04:35:37.002Z,23.43
2019-04-03T04:38:18.793Z,22.80
2019-04-03T04:40:48.755Z,23.87
2019-04-03T04:43:18.453Z,27.87
2019-04-03T04:45:47.832Z,26.80
2019-04-03T04:48:36.905Z,26.83
2019-04-03T04:51:06.912Z,24.70
2019-04-03T04:53:36.601Z,24.77
2019-04-03T04:56:06.566Z,27.17
2019-04-03T04:58:46.682Z,27.90
2019-04-03T05:01:17.846Z,26.37
2019-04-03T05:04:06.507Z,26.27
2019-04-03T05:06:35.890Z,26.57
2019-04-03T05:15:48.016Z,26.87
2019-04-03T05:18:29.917Z,26.67
2019-04-03T05:20:59.110Z,26.87
2019-04-03T05:23:48.233Z,25.63
2019-04-03T05:26:20.773Z,27.17
2019-04-03T05:29:08.248Z,25.60
2019-04-03T05:31:39.032Z,26.60
2019-04-03T05:34:43.658Z,23.40
2019-04-03T05:37:52.137Z,23.57
2019-04-03T05:40:41.235Z,24.50
2019-04-03T05:43:31.545Z,24.00
2019-04-03T05:46:11.729Z,22.77
2019-04-03T05:51:55.895Z,27.07
2019-04-03T05:54:25.937Z,27.37
2019-04-03T05:56:55.891Z,29.18
2019-04-03T05:59:25.249Z,25.57
2019-04-03T06:01:55.002Z,26.13
2019-04-03T06:04:45.173Z,28.30
2019-04-03T06:07:17.456Z,27.60
2019-04-03T06:13:28.514Z,27.93
2019-04-03T06:16:10.505Z,29.00
2019-04-03T06:18:39.884Z,35.23
2019-04-03T06:21:09.543Z,33.05
2019-04-03T06:23:52.697Z,31.50
2019-04-03T06:26:22.799Z,32.30
2019-04-03T06:28:52.240Z,30.03
2019-04-03T06:32:01.949Z,29.57
2019-04-03T06:34:31.584Z,29.10
2019-04-03T06:37:11.775Z,30.93
2019-04-03T06:39:41.179Z,30.03
2019-04-03T06:42:13.015Z,30.32
2019-04-03T06:44:48.066Z,30.23
2019-04-03T06:47:18.038Z,29.82
2019-04-03T06:49:47.687Z,30.25
2019-04-03T06:52:17.067Z,31.93
2019-04-03T06:54:46.422Z,29.50
2019-04-03T07:00:30.842Z,28.45
2019-04-03T07:03:01.491Z,28.40
2019-04-03T07:05:50.372Z,28.67
2019-04-03T07:08:35.380Z,28.57
2019-04-03T07:11:03.575Z,28.57
2019-04-03T07:14:11.687Z,28.00
2019-04-03T07:16:41.165Z,28.47
2019-04-03T07:21:50.197Z,26.50
2019-04-03T07:24:19.767Z,26.63
2019-04-03T07:33:13.909Z,27.05
2019-04-03T07:35:43.490Z,27.10
2019-04-03T07:38:33.438Z,26.20
2019-04-03T07:41:02.988Z,25.87
2019-04-03T07:43:32.603Z,26.47
2019-04-03T07:46:03.371Z,27.13
2019-04-03T07:48:52.516Z,26.55
2019-04-03T07:51:22.081Z,26.90
2019-04-03T07:53:53.373Z,26.23
2019-04-03T07:56:25.576Z,26.40
2019-04-03T07:59:13.154Z,25.90
2019-04-03T08:01:43.875Z,27.17
2019-04-03T08:04:15.759Z,27.20
2019-04-03T08:06:50.319Z,27.20
2019-04-03T08:09:19.680Z,25.47
2019-04-03T08:11:49.890Z,26.53
2019-04-03T08:14:30.105Z,23.40
2019-04-03T08:16:59.484Z,23.83
2019-04-03T08:19:29.022Z,23.10
2019-04-03T08:22:01.176Z,23.67
2019-04-03T08:24:49.146Z,21.53
2019-04-03T08:27:18.783Z,21.70
2019-04-03T08:29:48.407Z,19.43
2019-04-03T08:32:18.376Z,18.12
2019-04-03T08:35:19.848Z,17.00
2019-04-03T08:37:44.852Z,16.50
2019-04-03T08:40:28.875Z,17.70
2019-04-03T08:43:00.386Z,15.60
2019-04-03T08:45:37.808Z,16.40
2019-04-03T08:48:17.501Z,17.47
2019-04-03T08:50:52.525Z,17.27
2019-04-03T08:53:22.302Z,18.57
2019-04-03T08:55:51.973Z,19.15
2019-04-03T08:58:22.107Z,18.70
2019-04-03T09:01:11.872Z,21.60
2019-04-03T09:03:41.280Z,21.20
2019-04-03T09:06:10.635Z,20.93
2019-04-03T09:08:40.233Z,18.80
2019-04-03T09:11:09.562Z,20.00
2019-04-03T09:13:45.389Z,19.87
2019-04-03T09:16:15.316Z,20.27
2019-04-03T09:19:05.273Z,19.27
2019-04-03T09:21:34.629Z,19.27
2019-04-03T09:24:04.294Z,19.67
2019-04-03T09:26:37.122Z,18.57
2019-04-03T09:29:24.215Z,19.77
2019-04-03T09:32:13.214Z,20.37
2019-04-03T09:34:42.575Z,19.70
2019-04-03T09:37:12.301Z,21.20
2019-04-03T09:39:44.430Z,22.57
2019-04-03T09:42:19.617Z,24.07
2019-04-03T09:48:15.415Z,26.47
2019-04-03T09:51:24.809Z,26.23
2019-04-03T09:53:57.078Z,25.05
2019-04-03T09:56:57.160Z,25.13
2019-04-03T09:59:33.489Z,25.70
2019-04-03T10:02:03.505Z,27.10
2019-04-03T10:04:32.809Z,27.17
2019-04-03T10:07:02.736Z,26.60
2019-04-03T10:09:54.392Z,26.60
2019-04-03T10:12:54.141Z,25.17
2019-04-03T10:15:31.191Z,27.22
2019-04-03T10:18:06.949Z,26.25
2019-04-03T10:20:43.120Z,25.30
2019-04-03T10:23:20.057Z,28.10
2019-04-03T10:25:56.819Z,26.50
2019-04-03T10:28:32.945Z,27.53
2019-04-03T10:31:13.334Z,26.20
2019-04-03T10:33:43.051Z,23.70
2019-04-03T10:36:31.763Z,25.03
2019-04-03T10:44:49.427Z,25.97
2019-04-03T10:47:20.820Z,18.97
2019-04-03T10:50:00.053Z,22.57
2019-04-03T10:52:29.492Z,21.73
2019-04-03T10:54:59.458Z,18.12
2019-04-03T10:57:29.055Z,21.53
2019-04-03T11:00:19.047Z,21.00
2019-04-03T11:02:48.743Z,20.23
2019-04-03T11:05:58.522Z,16.37
2019-04-03T11:08:28.048Z,15.70
2019-04-03T11:14:13.101Z,14.83
2019-04-03T11:16:49.074Z,13.15
2019-04-03T11:19:20.313Z,12.93
2019-04-03T11:22:10.533Z,14.37
2019-04-03T11:24:59.268Z,14.80
2019-04-03T11:27:40.814Z,12.57
2019-04-03T11:33:06.966Z,13.60
2019-04-03T11:35:57.785Z,13.07
2019-04-03T11:38:37.580Z,15.03
2019-04-03T11:41:15.066Z,13.57
2019-04-03T11:43:57.528Z,14.70
2019-04-03T11:46:27.326Z,14.27
2019-04-03T11:49:03.956Z,14.10
2019-04-03T11:51:34.471Z,14.30
2019-04-03T11:54:23.907Z,16.07
2019-04-03T11:56:56.238Z,17.57
2019-04-03T11:59:46.974Z,16.77
2019-04-03T12:05:20.781Z,16.00
2019-04-03T12:07:56.633Z,16.23
2019-04-03T12:10:32.792Z,14.50
2019-04-03T12:13:08.652Z,16.65
2019-04-03T12:15:38.359Z,15.20
2019-04-03T12:18:07.718Z,15.03
2019-04-03T12:20:42.570Z,11.30
2019-04-03T12:23:27.835Z,11.23
2019-04-03T12:26:04.143Z,14.03
2019-04-03T12:28:34.058Z,12.30
2019-04-03T12:31:10.682Z,11.90
2019-04-03T12:33:52.406Z,11.87
2019-04-03T12:36:30.502Z,10.70
2019-04-03T12:38:59.862Z,13.03
2019-04-03T12:41:29.817Z,13.10
2019-04-03T12:44:06.566Z,14.63
2019-04-03T12:46:55.060Z,15.80
2019-04-03T12:49:24.755Z,13.93
2019-04-03T12:52:34.305Z,13.00
2019-04-03T13:01:10.744Z,18.73
2019-04-03T13:03:45.048Z,17.17
2019-04-03T13:09:50.638Z,15.50
2019-04-03T13:12:22.065Z,15.23
2019-04-03T13:15:50.401Z,13.33
2019-04-03T13:18:19.904Z,13.10
2019-04-03T13:20:49.284Z,9.10
2019-04-03T13:23:19.148Z,14.17
2019-04-03T13:26:35.932Z,14.00
2019-04-03T13:29:08.673Z,12.40
2019-04-03T13:34:57.778Z,13.05
2019-04-03T13:37:27.495Z,13.63
2019-04-03T13:40:17.864Z,13.78
2019-04-03T13:42:57.705Z,13.32
2019-04-03T13:45:27.227Z,12.10
2019-04-03T13:47:57.458Z,12.18
2019-04-03T13:50:46.724Z,13.37
2019-04-03T13:53:16.075Z,12.47
2019-04-03T13:55:45.755Z,13.05
2019-04-03T13:58:15.517Z,14.13
2019-04-03T14:03:47.992Z,12.23
2019-04-03T14:06:23.170Z,12.93
2019-04-03T14:09:11.952Z,14.13
2019-04-03T14:11:41.585Z,15.57
2019-04-03T14:14:11.052Z,14.07
2019-04-03T14:16:40.438Z,13.80
2019-04-03T14:21:50.354Z,11.83
2019-04-03T14:24:20.285Z,15.73
2019-04-03T14:26:56.535Z,14.07
2019-04-03T14:29:39.699Z,13.90
2019-04-03T14:32:09.195Z,13.00
2019-04-03T14:35:06.178Z,16.70
2019-04-03T14:37:48.981Z,18.15
2019-04-03T14:40:18.336Z,19.17
2019-04-03T14:42:47.998Z,19.90
2019-04-03T14:45:17.773Z,16.87
2019-04-03T14:47:55.742Z,15.98
2019-04-03T14:50:50.789Z,29.93
2019-04-03T14:53:39.052Z,15.05
2019-04-03T14:59:23.807Z,15.43
2019-04-03T15:02:05.917Z,20.87
2019-04-03T15:04:37.106Z,14.30
2019-04-03T15:07:12.062Z,15.45
2019-04-03T15:09:52.178Z,13.87
2019-04-03T15:12:21.492Z,13.20
2019-04-03T15:15:04.601Z,14.15
2019-04-03T15:17:46.057Z,14.30
2019-04-03T15:23:40.187Z,14.60
2019-04-03T15:26:12.562Z,16.43
2019-04-03T15:28:49.702Z,13.45
2019-04-03T15:31:26.588Z,13.20
2019-04-03T15:34:02.756Z,13.77
2019-04-03T15:36:51.735Z,13.10
2019-04-03T15:39:33.239Z,13.77
2019-04-03T15:48:21.569Z,13.80
2019-04-03T15:50:57.687Z,15.35
2019-04-03T15:53:53.769Z,15.57
2019-04-03T15:56:44.935Z,14.30
2019-04-03T15:59:35.303Z,15.10
2019-04-03T16:02:27.988Z,12.57
2019-04-03T16:05:45.400Z,12.90
2019-04-03T16:08:15.179Z,13.90
2019-04-03T16:10:45.183Z,13.40
2019-04-03T16:13:22.135Z,14.90
2019-04-03T16:16:00.418Z,14.98
2019-04-03T16:18:37.874Z,15.40
2019-04-03T16:21:15.129Z,14.27
2019-04-03T16:23:45.852Z,13.43
2019-04-03T16:26:25.849Z,14.30
2019-04-03T16:28:56.935Z,14.00
2019-04-03T16:31:46.062Z,15.13
2019-04-03T16:34:26.667Z,14.37
2019-04-03T16:36:56.629Z,15.20
2019-04-03T16:39:27.879Z,12.67
2019-04-03T16:41:57.584Z,13.47
2019-04-03T16:44:27.525Z,15.45
2019-04-03T16:47:04.154Z,16.00
2019-04-03T16:49:33.626Z,15.20
2019-04-03T16:52:05.503Z,15.30
2019-04-03T16:54:43.432Z,14.33
2019-04-03T16:57:22.565Z,14.63
2019-04-03T17:00:16.588Z,14.30
2019-04-03T17:02:46.186Z,13.70
2019-04-03T17:05:36.394Z,15.10
2019-04-03T17:08:05.769Z,13.47
2019-04-03T17:10:54.907Z,14.70
2019-04-03T17:13:24.282Z,14.80
2019-04-03T17:15:53.707Z,13.03
2019-04-03T17:18:35.263Z,16.33
2019-04-03T17:21:05.204Z,14.87
2019-04-03T17:23:46.295Z,14.95
2019-04-03T17:26:22.624Z,14.68
2019-04-03T17:29:05.960Z,15.98
2019-04-03T17:31:35.286Z,16.70
2019-04-03T17:34:07.538Z,15.97
2019-04-03T17:36:41.317Z,16.47
2019-04-03T17:39:52.367Z,16.10
2019-04-03T17:42:40.911Z,15.37
2019-04-03T17:45:22.477Z,15.80
2019-04-03T17:47:53.875Z,16.20
2019-04-03T17:50:29.788Z,17.73
2019-04-03T17:53:08.774Z,18.50
2019-04-03T17:55:41.263Z,18.10
2019-04-03T17:58:28.610Z,16.80
2019-04-03T18:00:58.557Z,20.43
2019-04-03T18:03:28.294Z,20.83
2019-04-03T18:05:57.664Z,20.33
2019-04-03T18:08:27.331Z,22.05
2019-04-03T18:10:56.892Z,19.90
2019-04-03T18:13:26.409Z,20.93
2019-04-03T18:15:58.641Z,23.10
2019-04-03T18:18:33.499Z,20.30
2019-04-03T18:21:09.610Z,21.13
2019-04-03T18:23:39.280Z,23.80
2019-04-03T18:26:08.646Z,23.40
2019-04-03T18:28:38.350Z,20.17
2019-04-03T18:31:07.713Z,19.63
2019-04-03T18:33:37.373Z,20.77
2019-04-03T18:36:06.732Z,21.03
2019-04-03T18:38:36.705Z,21.45
2019-04-03T18:41:26.544Z,22.93
2019-04-03T18:43:55.927Z,21.07
2019-04-03T18:46:44.901Z,20.07
2019-04-03T18:49:14.516Z,20.13
2019-04-03T18:51:49.760Z,20.75
2019-04-03T18:54:19.434Z,19.27
2019-04-03T18:56:48.784Z,20.30
2019-04-03T18:59:18.144Z,19.67
2019-04-03T19:01:47.845Z,22.77
2019-04-03T19:04:18.846Z,22.37
2019-04-03T19:06:48.421Z,20.70
2019-04-03T19:12:07.992Z,20.33
2019-04-03T19:14:34.003Z,21.87
2019-04-03T19:17:03.974Z,21.23
2019-04-03T19:19:46.080Z,22.23
2019-04-03T19:22:15.636Z,23.73
2019-04-03T19:27:52.854Z,22.90
2019-04-03T19:30:22.570Z,23.97
2019-04-03T19:35:47.900Z,21.87
2019-04-03T19:38:25.680Z,24.92
2019-04-03T19:40:55.189Z,24.20
2019-04-03T19:43:24.621Z,24.10
2019-04-03T19:45:53.969Z,23.40
2019-04-03T19:48:35.687Z,22.13
2019-04-03T19:51:05.121Z,23.17
2019-04-03T19:57:03.777Z,23.70
2019-04-03T19:59:45.420Z,22.77
2019-04-03T20:02:14.792Z,22.60
2019-04-03T20:04:44.143Z,23.30
2019-04-03T20:07:13.966Z,22.70
2019-04-03T20:12:51.878Z,23.30
2019-04-03T20:15:22.822Z,23.70
2019-04-03T20:18:12.254Z,22.30
2019-04-03T20:20:41.859Z,24.43
2019-04-03T20:23:11.288Z,25.43
2019-04-03T20:25:53.528Z,25.40
2019-04-03T20:28:24.084Z,24.73
2019-04-03T20:30:59.887Z,24.90
2019-04-03T20:33:29.258Z,23.27
2019-04-03T20:35:58.913Z,25.48
2019-04-03T20:38:28.287Z,26.67
2019-04-03T20:40:57.950Z,24.98
2019-04-03T20:43:27.620Z,27.20
2019-04-03T20:45:57.282Z,25.53
2019-04-03T20:48:28.288Z,25.13
2019-04-03T20:51:03.841Z,28.05
2019-04-03T20:53:45.957Z,28.40
2019-04-03T20:56:15.622Z,27.87
2019-04-03T20:58:55.892Z,29.52
2019-04-03T21:01:42.173Z,27.90
2019-04-03T21:04:12.998Z,26.80
2019-04-03T21:06:48.266Z,27.30
2019-04-03T21:09:37.222Z,27.90
2019-04-03T21:12:07.139Z,26.37
2019-04-03T21:17:52.159Z,26.25
2019-04-03T21:20:34.528Z,26.37
2019-04-03T21:23:23.282Z,28.70
2019-04-03T21:25:52.940Z,26.67
2019-04-03T21:28:22.292Z,27.67
2019-04-03T21:30:54.971Z,27.70
2019-04-03T21:33:45.208Z,26.85
2019-04-03T21:36:20.371Z,28.50
2019-04-03T21:38:50.025Z,25.43
2019-04-03T21:41:20.760Z,26.23
2019-04-03T21:43:56.258Z,25.35
2019-04-03T21:46:28.117Z,27.58
2019-04-03T21:48:59.560Z,27.33
2019-04-03T21:51:28.921Z,26.40
2019-04-03T21:53:58.268Z,27.03
2019-04-03T21:56:27.908Z,27.90
2019-04-03T21:58:57.576Z,25.57
2019-04-03T22:01:46.406Z,27.63
2019-04-03T22:04:16.131Z,27.67
2019-04-03T22:06:46.283Z,25.48
2019-04-03T22:09:35.314Z,28.07
2019-04-03T22:12:05.977Z,28.07
2019-04-03T22:17:35.125Z,28.77
2019-04-03T22:20:44.575Z,28.30
2019-04-03T22:23:13.979Z,27.07
2019-04-03T22:25:43.355Z,28.80
2019-04-03T22:28:13.438Z,28.02
2019-04-03T22:31:03.168Z,28.07
2019-04-03T22:33:32.530Z,28.70
2019-04-03T22:36:03.400Z,28.62
2019-04-03T22:39:02.427Z,27.17
2019-04-03T22:41:33.428Z,27.80
2019-04-03T22:44:03.316Z,28.65
2019-04-03T22:46:32.944Z,27.60
2019-04-03T22:49:02.325Z,27.73
2019-04-03T22:51:32.004Z,26.97
2019-04-03T22:54:01.377Z,27.93
2019-04-03T22:56:43.022Z,27.00
2019-04-03T22:59:12.389Z,27.00
2019-04-03T23:01:42.053Z,27.30
2019-04-03T23:06:52.316Z,26.30
2019-04-03T23:09:24.747Z,23.70
2019-04-03T23:11:58.612Z,20.57
2019-04-03T23:14:47.412Z,20.40
2019-04-03T23:17:29.568Z,19.23
2019-04-03T23:19:59.337Z,18.77
2019-04-03T23:22:30.311Z,19.27
2019-04-03T23:25:00.132Z,17.93
2019-04-03T23:27:39.645Z,16.80
2019-04-03T23:30:28.500Z,17.90
2019-04-03T23:32:58.160Z,17.10
2019-04-03T23:35:27.774Z,16.37
2019-04-03T23:37:57.440Z,16.57
2019-04-03T23:40:26.789Z,15.67
2019-04-03T23:42:56.596Z,15.33
2019-04-03T23:48:18.278Z,16.20
2019-04-03T23:50:53.585Z,15.00
2019-04-03T23:53:23.155Z,15.43
2019-04-03T23:55:52.507Z,15.60
2019-04-03T23:58:22.175Z,16.95
